createdAt,value
2022-10-02T00:00:08.282Z,2.67
2022-10-02T00:02:39.283Z,2.90
2022-10-02T00:05:12.040Z,2.75
2022-10-02T00:07:44.344Z,2.30
2022-10-02T00:10:18.638Z,2.40
2022-10-02T00:12:47.427Z,2.53
2022-10-02T00:15:18.180Z,3.10
2022-10-02T00:17:49.217Z,2.53
2022-10-02T00:20:18.707Z,2.53
2022-10-02T00:22:52.475Z,2.45
2022-10-02T00:25:26.950Z,2.42
2022-10-02T00:28:18.969Z,2.63
2022-10-02T00:31:01.547Z,2.17
2022-10-02T00:33:37.433Z,2.28
2022-10-02T00:36:16.357Z,2.10
2022-10-02T00:38:56.507Z,2.08
2022-10-02T00:41:54.018Z,2.40
2022-10-02T00:44:41.708Z,1.90
2022-10-02T00:47:17.662Z,2.17
2022-10-02T00:50:10.640Z,2.00
2022-10-02T00:52:54.886Z,2.10
2022-10-02T00:55:37.412Z,1.95
2022-10-02T00:58:23.452Z,2.42
2022-10-02T01:01:00.910Z,2.38
2022-10-02T01:03:34.378Z,2.58
2022-10-02T01:06:01.220Z,2.13
2022-10-02T01:08:28.254Z,1.90
2022-10-02T01:10:54.996Z,1.98
2022-10-02T01:13:23.367Z,2.22
2022-10-02T01:15:54.351Z,3.10
2022-10-02T01:18:21.179Z,1.85
2022-10-02T01:20:50.302Z,1.95
2022-10-02T01:23:24.758Z,2.17
2022-10-02T01:25:53.067Z,1.90
2022-10-02T01:28:20.994Z,1.98
2022-10-02T01:30:52.109Z,2.10
2022-10-02T01:33:19.382Z,2.30
2022-10-02T01:35:46.300Z,2.10
2022-10-02T01:38:17.113Z,2.33
2022-10-02T01:40:44.269Z,1.98
2022-10-02T01:43:16.578Z,1.92
2022-10-02T01:46:01.080Z,2.22
2022-10-02T01:48:42.053Z,2.05
2022-10-02T01:51:25.301Z,2.30
2022-10-02T01:54:04.954Z,2.40
2022-10-02T01:56:40.358Z,1.90
2022-10-02T01:59:20.153Z,2.15
2022-10-02T02:02:00.664Z,2.20
2022-10-02T02:04:33.073Z,2.00
2022-10-02T02:07:07.019Z,2.05
2022-10-02T02:09:41.992Z,2.28
2022-10-02T02:12:14.729Z,2.10
2022-10-02T02:14:47.897Z,2.28
2022-10-02T02:17:19.473Z,1.98
2022-10-02T02:19:51.116Z,2.00
2022-10-02T02:22:22.756Z,2.15
2022-10-02T02:24:55.025Z,2.08
2022-10-02T02:27:25.872Z,2.13
2022-10-02T02:30:00.363Z,2.40
2022-10-02T02:32:31.067Z,2.40
2022-10-02T02:35:01.614Z,2.47
2022-10-02T02:37:32.189Z,2.00
2022-10-02T02:40:03.295Z,2.30
2022-10-02T02:42:33.006Z,2.00
2022-10-02T02:45:07.350Z,2.30
2022-10-02T02:47:38.520Z,2.00
2022-10-02T02:50:11.187Z,2.00
2022-10-02T02:52:42.341Z,2.05
2022-10-02T02:55:13.457Z,1.90
2022-10-02T02:57:45.977Z,2.13
2022-10-02T03:00:15.784Z,2.20
2022-10-02T03:02:42.909Z,2.25
2022-10-02T03:05:14.164Z,2.15
2022-10-02T03:07:46.308Z,2.30
2022-10-02T03:10:18.743Z,2.30
2022-10-02T03:12:57.217Z,2.50
2022-10-02T03:15:35.323Z,2.13
2022-10-02T03:18:19.761Z,1.90
2022-10-02T03:21:00.147Z,1.85
2022-10-02T03:23:35.725Z,2.30
2022-10-02T03:26:08.573Z,2.40
2022-10-02T03:28:54.813Z,2.50
2022-10-02T03:31:27.508Z,2.28
2022-10-02T03:33:55.381Z,1.95
2022-10-02T03:36:22.701Z,2.20
2022-10-02T03:39:00.736Z,1.85
2022-10-02T03:41:36.849Z,2.05
2022-10-02T03:44:03.989Z,2.40
2022-10-02T03:46:32.098Z,2.30
2022-10-02T03:48:58.910Z,1.95
2022-10-02T03:51:26.263Z,2.22
2022-10-02T03:53:53.127Z,3.10
2022-10-02T03:56:36.040Z,2.30
2022-10-02T03:59:10.518Z,2.20
2022-10-02T04:01:48.213Z,2.00
2022-10-02T04:04:18.424Z,2.37
2022-10-02T04:06:48.581Z,2.03
2022-10-02T04:09:23.250Z,2.17
2022-10-02T04:11:56.714Z,2.22
2022-10-02T04:14:29.908Z,2.42
2022-10-02T04:17:03.585Z,2.22
2022-10-02T04:19:38.014Z,2.70
2022-10-02T04:22:10.657Z,2.40
2022-10-02T04:24:43.334Z,2.10
2022-10-02T04:27:14.999Z,2.25
2022-10-02T04:29:46.250Z,2.40
2022-10-02T04:32:16.762Z,2.25
2022-10-02T04:34:43.493Z,2.13
2022-10-02T04:37:32.947Z,2.47
2022-10-02T04:42:49.263Z,2.50
2022-10-02T04:45:32.310Z,2.35
2022-10-02T04:48:26.359Z,2.60
2022-10-02T04:51:00.574Z,2.30
2022-10-02T04:53:45.603Z,2.28
2022-10-02T04:56:41.389Z,2.55
2022-10-02T04:59:22.400Z,2.10
2022-10-02T05:02:05.864Z,2.38
2022-10-02T05:04:55.012Z,2.30
2022-10-02T05:07:45.856Z,1.90
2022-10-02T05:10:37.346Z,2.10
2022-10-02T05:13:11.580Z,2.50
2022-10-02T05:15:51.030Z,2.33
2022-10-02T05:21:13.325Z,2.05
2022-10-02T05:24:02.275Z,1.80
2022-10-02T05:26:50.373Z,2.10
2022-10-02T05:29:31.273Z,2.13
2022-10-02T05:32:16.730Z,2.95
2022-10-02T05:35:09.700Z,2.50
2022-10-02T05:37:53.139Z,2.55
2022-10-02T05:40:26.335Z,2.60
2022-10-02T05:43:02.185Z,2.85
2022-10-02T05:45:35.079Z,2.80
2022-10-02T05:48:08.277Z,2.75
2022-10-02T05:50:38.291Z,2.97
2022-10-02T05:53:14.383Z,3.58
2022-10-02T05:55:46.989Z,3.30
2022-10-02T05:58:19.900Z,2.85
2022-10-02T06:00:51.910Z,2.97
2022-10-02T06:03:24.539Z,3.38
2022-10-02T06:05:54.391Z,3.30
2022-10-02T06:08:29.692Z,3.58
2022-10-02T06:11:03.095Z,4.18
2022-10-02T06:13:33.795Z,3.50
2022-10-02T06:16:17.405Z,3.95
2022-10-02T06:18:47.792Z,3.80
2022-10-02T06:21:25.387Z,4.40
2022-10-02T06:23:56.170Z,4.60
2022-10-02T06:26:28.999Z,4.18
2022-10-02T06:29:00.366Z,4.25
2022-10-02T06:31:38.113Z,4.05
2022-10-02T06:34:07.381Z,3.92
2022-10-02T06:37:03.378Z,4.30
2022-10-02T06:39:57.463Z,4.38
2022-10-02T06:42:39.023Z,4.18
2022-10-02T06:45:16.019Z,3.67
2022-10-02T06:48:00.505Z,4.18
2022-10-02T06:50:48.569Z,4.00
2022-10-02T06:53:34.551Z,4.07
2022-10-02T06:56:21.147Z,3.80
2022-10-02T06:58:58.399Z,4.10
2022-10-02T07:01:35.605Z,4.57
2022-10-02T07:04:19.115Z,4.72
2022-10-02T07:07:04.703Z,3.92
2022-10-02T07:10:06.350Z,4.70
2022-10-02T07:12:59.015Z,4.38
2022-10-02T07:15:52.167Z,4.40
2022-10-02T07:18:32.753Z,4.15
2022-10-02T07:21:07.328Z,4.60
2022-10-02T07:23:43.777Z,4.72
2022-10-02T07:26:42.861Z,4.70
2022-10-02T07:29:22.393Z,4.40
2022-10-02T07:32:01.388Z,4.25
2022-10-02T07:34:39.807Z,4.78
2022-10-02T07:37:22.087Z,4.97
2022-10-02T07:40:05.367Z,5.20
2022-10-02T07:42:54.508Z,5.07
2022-10-02T07:45:37.074Z,5.53
2022-10-02T07:48:18.483Z,4.38
2022-10-02T07:51:00.964Z,5.38
2022-10-02T07:53:34.531Z,4.57
2022-10-02T07:56:03.986Z,4.50
2022-10-02T08:01:23.640Z,4.35
2022-10-02T08:04:25.046Z,4.88
2022-10-02T08:13:18.441Z,4.15
2022-10-02T08:17:33.084Z,4.38
2022-10-02T08:19:50.600Z,4.50
2022-10-02T08:22:50.325Z,3.88
2022-10-02T08:25:59.665Z,4.07
2022-10-02T08:29:45.538Z,4.50
2022-10-02T08:31:56.205Z,4.25
2022-10-02T08:34:34.695Z,3.88
2022-10-02T08:43:56.898Z,3.88
2022-10-02T08:47:12.210Z,3.53
2022-10-02T08:50:16.638Z,3.63
2022-10-02T08:53:13.625Z,3.70
2022-10-02T08:56:05.052Z,3.30
2022-10-02T08:59:03.989Z,3.90
2022-10-02T09:02:17.908Z,2.80
2022-10-02T09:05:24.744Z,3.63
2022-10-02T09:09:03.424Z,4.05
2022-10-02T09:12:21.661Z,3.25
2022-10-02T09:15:54.725Z,3.60
2022-10-02T09:18:21.455Z,3.75
2022-10-02T09:21:15.252Z,3.80
2022-10-02T09:24:23.313Z,3.38
2022-10-02T09:27:12.186Z,3.03
2022-10-02T09:30:18.949Z,2.90
2022-10-02T09:33:23.072Z,3.13
2022-10-02T09:36:21.224Z,2.97
2022-10-02T09:39:20.444Z,2.75
2022-10-02T09:42:16.174Z,3.08
2022-10-02T09:45:28.036Z,2.78
2022-10-02T09:48:37.768Z,2.72
2022-10-02T09:51:36.551Z,2.88
2022-10-02T09:54:33.320Z,2.78
2022-10-02T09:57:31.695Z,3.15
2022-10-02T10:00:35.706Z,2.63
2022-10-02T10:03:52.652Z,2.67
2022-10-02T10:07:10.815Z,2.30
2022-10-02T10:10:14.521Z,2.70
2022-10-02T10:13:17.761Z,2.85
2022-10-02T10:16:16.404Z,3.17
2022-10-02T10:19:16.171Z,2.83
2022-10-02T10:22:21.703Z,2.75
2022-10-02T10:25:21.435Z,2.42
2022-10-02T10:28:30.690Z,2.35
2022-10-02T10:31:32.416Z,2.40
2022-10-02T10:34:39.300Z,2.13
2022-10-02T10:37:08.089Z,2.35
2022-10-02T10:40:01.598Z,2.55
2022-10-02T10:43:07.842Z,2.55
2022-10-02T10:45:56.538Z,2.60
2022-10-02T10:48:34.607Z,3.13
2022-10-02T10:51:22.174Z,3.33
2022-10-02T10:54:24.894Z,3.38
2022-10-02T10:56:57.177Z,2.95
2022-10-02T10:59:52.157Z,2.60
2022-10-02T11:02:58.470Z,2.53
2022-10-02T11:06:01.404Z,2.63
2022-10-02T11:08:49.828Z,2.80
2022-10-02T11:11:21.855Z,2.40
2022-10-02T11:14:04.655Z,2.10
2022-10-02T11:17:02.377Z,1.92
2022-10-02T11:19:44.739Z,1.77
2022-10-02T11:22:42.692Z,1.92
2022-10-02T11:25:22.326Z,1.88
2022-10-02T11:28:45.596Z,2.25
2022-10-02T11:31:30.144Z,2.17
2022-10-02T11:34:23.882Z,2.05
2022-10-02T11:37:06.511Z,2.17
2022-10-02T11:40:09.017Z,2.10
2022-10-02T11:43:07.121Z,1.85
2022-10-02T11:46:08.223Z,2.33
2022-10-02T11:49:10.333Z,2.03
2022-10-02T11:52:10.282Z,1.83
2022-10-02T11:54:58.510Z,2.53
2022-10-02T11:57:32.696Z,1.75
2022-10-02T12:00:12.610Z,2.08
2022-10-02T12:02:47.279Z,2.25
2022-10-02T12:05:27.301Z,2.00
2022-10-02T12:08:00.392Z,2.03
2022-10-02T12:10:33.529Z,2.10
2022-10-02T12:13:18.670Z,1.98
2022-10-02T12:15:53.908Z,1.67
2022-10-02T12:18:35.896Z,1.90
2022-10-02T12:21:23.402Z,1.67
2022-10-02T12:24:06.022Z,1.90
2022-10-02T12:26:47.721Z,1.73
2022-10-02T12:29:31.615Z,2.22
2022-10-02T12:35:37.715Z,1.88
2022-10-02T12:38:21.458Z,1.73
2022-10-02T12:41:01.497Z,1.60
2022-10-02T12:44:11.134Z,1.73
2022-10-02T12:47:16.613Z,1.85
2022-10-02T12:50:03.297Z,1.88
2022-10-02T12:53:14.602Z,2.08
2022-10-02T12:56:27.077Z,1.60
2022-10-02T12:59:10.177Z,1.80
2022-10-02T13:02:33.073Z,1.60
2022-10-02T13:05:38.887Z,1.50
2022-10-02T13:08:40.165Z,1.67
2022-10-02T13:11:30.704Z,2.05
2022-10-02T13:14:31.257Z,2.10
2022-10-02T13:17:16.576Z,1.70
2022-10-02T13:19:57.525Z,1.80
2022-10-02T13:22:42.519Z,1.25
2022-10-02T13:25:45.627Z,1.67
2022-10-02T13:28:46.256Z,1.80
2022-10-02T13:31:22.149Z,1.40
2022-10-02T13:34:10.704Z,1.50
2022-10-02T13:36:53.416Z,1.30
2022-10-02T13:39:41.122Z,1.70
2022-10-02T13:42:31.650Z,1.35
2022-10-02T13:48:33.134Z,1.55
2022-10-02T13:51:36.849Z,1.50
2022-10-02T13:57:54.499Z,1.40
2022-10-02T14:00:50.266Z,1.70
2022-10-02T14:03:42.897Z,1.20
2022-10-02T14:06:27.827Z,1.60
2022-10-02T14:09:09.571Z,1.40
2022-10-02T14:12:05.828Z,1.30
2022-10-02T14:15:23.394Z,1.80
2022-10-02T14:18:27.263Z,1.88
2022-10-02T14:21:15.292Z,1.20
2022-10-02T14:24:19.935Z,1.30
2022-10-02T14:27:14.476Z,1.98
2022-10-02T14:30:18.210Z,1.63
2022-10-02T14:33:29.711Z,1.40
2022-10-02T14:36:44.075Z,1.50
2022-10-02T14:39:57.093Z,1.58
2022-10-02T14:43:10.628Z,1.48
2022-10-02T14:46:40.102Z,1.55
2022-10-02T14:49:43.667Z,1.55
2022-10-02T14:52:43.213Z,1.70
2022-10-02T14:58:45.047Z,1.58
2022-10-02T15:04:46.870Z,1.20
2022-10-02T15:07:28.378Z,1.55
2022-10-02T15:10:15.961Z,1.40
2022-10-02T15:12:50.056Z,2.10
2022-10-02T15:15:22.575Z,1.83
2022-10-02T15:18:02.548Z,1.83
2022-10-02T15:20:40.876Z,1.88
2022-10-02T15:23:11.137Z,2.00
2022-10-02T15:26:06.350Z,1.60
2022-10-02T15:28:48.136Z,1.70
2022-10-02T15:31:56.224Z,1.85
2022-10-02T15:34:58.126Z,1.63
2022-10-02T15:37:45.675Z,1.60
2022-10-02T15:40:37.512Z,1.70
2022-10-02T15:43:36.709Z,1.63
2022-10-02T15:46:34.478Z,1.90
2022-10-02T15:49:23.021Z,1.92
2022-10-02T15:52:10.269Z,2.20
2022-10-02T15:55:08.595Z,2.08
2022-10-02T15:58:00.186Z,4.33
2022-10-02T16:00:47.017Z,4.78
2022-10-02T16:03:46.487Z,4.43
2022-10-02T16:06:47.941Z,3.90
2022-10-02T16:09:45.611Z,3.80
2022-10-02T16:12:32.961Z,3.83
2022-10-02T16:15:18.977Z,3.78
2022-10-02T16:18:29.980Z,3.10
2022-10-02T16:21:41.015Z,3.10
2022-10-02T16:24:25.735Z,3.00
2022-10-02T16:27:30.273Z,3.00
2022-10-02T16:30:36.038Z,2.90
2022-10-02T16:33:26.980Z,3.42
2022-10-02T16:36:24.980Z,3.15
2022-10-02T16:39:02.228Z,2.53
2022-10-02T16:41:36.267Z,3.35
2022-10-02T16:44:24.692Z,3.05
2022-10-02T16:46:55.606Z,3.05
2022-10-02T16:49:28.547Z,3.85
2022-10-02T16:52:04.538Z,3.92
2022-10-02T16:54:40.662Z,3.40
2022-10-02T16:57:20.829Z,3.40
2022-10-02T16:59:54.110Z,3.55
2022-10-02T17:02:26.436Z,4.05
2022-10-02T17:05:02.310Z,3.80
2022-10-02T17:07:52.007Z,3.83
2022-10-02T17:10:30.870Z,4.35
2022-10-02T17:13:06.627Z,4.25
2022-10-02T17:15:44.231Z,4.57
2022-10-02T17:18:24.700Z,5.25
2022-10-02T17:20:54.872Z,5.22
2022-10-02T17:23:28.154Z,5.43
2022-10-02T17:26:02.338Z,5.32
2022-10-02T17:28:37.670Z,5.55
2022-10-02T17:31:24.229Z,5.05
2022-10-02T17:33:54.581Z,5.63
2022-10-02T17:36:26.462Z,5.90
2022-10-02T17:39:07.754Z,9.38
2022-10-02T17:41:46.099Z,13.32
2022-10-02T17:44:23.371Z,12.93
2022-10-02T17:47:25.742Z,12.35
2022-10-02T17:50:15.598Z,9.73
2022-10-02T17:52:45.387Z,8.93
2022-10-02T17:55:30.250Z,8.65
2022-10-02T17:58:05.495Z,7.05
2022-10-02T18:00:37.484Z,6.47
2022-10-02T18:03:35.348Z,5.93
2022-10-02T18:06:31.337Z,6.20
2022-10-02T18:09:22.351Z,5.82
2022-10-02T18:12:17.679Z,6.53
2022-10-02T18:15:02.642Z,6.25
2022-10-02T18:17:47.941Z,6.05
2022-10-02T18:20:25.081Z,7.03
2022-10-02T18:23:10.593Z,7.45
2022-10-02T18:26:03.753Z,6.10
2022-10-02T18:28:42.728Z,6.40
2022-10-02T18:31:44.199Z,5.95
2022-10-02T18:34:31.566Z,7.18
2022-10-02T18:37:25.312Z,6.25
2022-10-02T18:40:07.340Z,6.60
2022-10-02T18:42:54.183Z,6.95
2022-10-02T18:45:36.724Z,7.00
2022-10-02T18:48:24.360Z,7.43
2022-10-02T18:51:15.845Z,6.88
2022-10-02T18:54:01.334Z,8.57
2022-10-02T18:56:50.235Z,8.43
2022-10-02T18:59:25.959Z,8.05
2022-10-02T19:02:05.801Z,8.50
2022-10-02T19:04:53.316Z,8.13
2022-10-02T19:07:24.506Z,7.65
2022-10-02T19:10:08.831Z,8.13
2022-10-02T19:12:42.819Z,7.38
2022-10-02T19:15:22.200Z,7.18
2022-10-02T19:17:58.829Z,7.28
2022-10-02T19:20:36.764Z,7.85
2022-10-02T19:23:06.237Z,8.02
2022-10-02T19:25:33.346Z,7.65
2022-10-02T19:28:03.221Z,8.27
2022-10-02T19:30:33.199Z,6.68
2022-10-02T19:33:06.724Z,7.60
2022-10-02T19:35:42.316Z,6.68
2022-10-02T19:38:20.608Z,6.97
2022-10-02T19:40:52.489Z,6.90
2022-10-02T19:43:26.230Z,7.00
2022-10-02T19:45:55.401Z,7.22
2022-10-02T19:48:24.486Z,7.15
2022-10-02T19:50:55.814Z,6.82
2022-10-02T19:53:24.158Z,6.50
2022-10-02T19:55:55.624Z,7.22
2022-10-02T19:58:31.036Z,7.45
2022-10-02T20:00:58.186Z,7.13
2022-10-02T20:03:26.813Z,7.50
2022-10-02T20:05:57.930Z,6.40
2022-10-02T20:08:30.676Z,6.55
2022-10-02T20:11:01.714Z,6.40
2022-10-02T20:13:37.307Z,5.97
2022-10-02T20:16:09.474Z,6.65
2022-10-02T20:18:36.274Z,6.22
2022-10-02T20:21:11.612Z,6.95
2022-10-02T20:23:42.711Z,7.28
2022-10-02T20:26:14.291Z,7.15
2022-10-02T20:28:47.822Z,6.75
2022-10-02T20:31:19.071Z,7.55
2022-10-02T20:33:49.747Z,7.35
2022-10-02T20:36:19.723Z,6.95
2022-10-02T20:38:51.300Z,7.22
2022-10-02T20:41:22.274Z,7.82
2022-10-02T20:43:54.247Z,7.68
2022-10-02T20:46:47.593Z,8.20
2022-10-02T20:49:36.841Z,7.07
2022-10-02T20:54:56.111Z,7.40
2022-10-02T20:58:09.795Z,7.38
2022-10-02T21:00:53.744Z,6.53
2022-10-02T21:03:41.851Z,6.90
2022-10-02T21:06:52.833Z,6.90
2022-10-02T21:09:58.742Z,7.05
2022-10-02T21:12:48.951Z,6.60
2022-10-02T21:19:22.841Z,7.30
2022-10-02T21:22:35.432Z,8.23
2022-10-02T21:25:38.981Z,7.93
2022-10-02T21:28:45.148Z,7.40
2022-10-02T21:31:26.483Z,7.20
2022-10-02T21:34:07.584Z,7.20
2022-10-02T21:36:42.134Z,7.18
2022-10-02T21:39:33.312Z,6.68
2022-10-02T21:42:36.939Z,6.88
2022-10-02T21:45:46.577Z,6.47
2022-10-02T21:48:54.902Z,6.90
2022-10-02T21:51:59.646Z,7.15
2022-10-02T21:55:18.521Z,6.85
2022-10-02T21:58:30.364Z,6.25
2022-10-02T22:01:57.533Z,6.78
2022-10-02T22:04:55.174Z,6.50
2022-10-02T22:07:32.657Z,6.78
2022-10-02T22:10:05.286Z,6.63
2022-10-02T22:12:47.617Z,6.28
2022-10-02T22:15:19.356Z,7.00
2022-10-02T22:17:56.274Z,7.05
2022-10-02T22:21:08.843Z,6.53
2022-10-02T22:23:47.649Z,5.72
2022-10-02T22:26:30.551Z,6.10
2022-10-02T22:29:07.391Z,5.85
2022-10-02T22:32:00.814Z,6.10
2022-10-02T22:34:45.867Z,6.60
2022-10-02T22:37:32.497Z,6.53
2022-10-02T22:40:04.968Z,6.18
2022-10-02T22:42:39.286Z,6.13
2022-10-02T22:45:14.170Z,5.93
2022-10-02T22:47:49.666Z,6.55
2022-10-02T22:50:24.477Z,6.50
2022-10-02T22:52:54.169Z,5.78
2022-10-02T22:55:26.547Z,6.10
2022-10-02T22:58:00.230Z,6.55
2022-10-02T23:00:31.378Z,6.28
2022-10-02T23:03:04.381Z,6.38
2022-10-02T23:05:35.771Z,6.30
2022-10-02T23:08:14.903Z,6.18
2022-10-02T23:10:46.661Z,6.20
2022-10-02T23:13:21.636Z,6.00
2022-10-02T23:15:56.254Z,5.95
2022-10-02T23:18:36.254Z,5.75
2022-10-02T23:21:22.287Z,5.50
2022-10-02T23:23:54.197Z,5.82
2022-10-02T23:26:32.710Z,5.90
2022-10-02T23:29:14.724Z,5.23
2022-10-02T23:31:47.125Z,5.68
2022-10-02T23:34:23.590Z,5.10
2022-10-02T23:36:54.673Z,5.82
2022-10-02T23:39:26.485Z,5.40
2022-10-02T23:41:58.458Z,5.32
2022-10-02T23:44:34.846Z,5.05
2022-10-02T23:47:29.329Z,5.47
2022-10-02T23:49:58.102Z,5.53
2022-10-02T23:52:48.520Z,4.80
2022-10-02T23:55:27.183Z,5.53
2022-10-02T23:58:13.434Z,4.80
